Time;durP1;ratioP1;P1;durP2;ratioP2;P2;SDS_P1;SDS_P2;PMS_P1;PMS_P2;Temp;Humidity;BMP_temperature;BMP_pressure;BME280_temperature;BME280_humidity;BME280_pressure;Samples;Min_cycle;Max_cycle;Signal;HPM_P1;HPM_P2
2021/06/21 00:00:20;;;;;;;12.73;2.17;;;18.80;99.40;;;;;;5022057;28;20491;-74
2021/06/21 00:02:47;;;;;;;13.07;3.23;;;18.70;99.90;;;;;;5035164;28;20422;-75
2021/06/21 00:05:16;;;;;;;9.03;2.37;;;18.70;99.90;;;;;;5054105;22;20523;-77
2021/06/21 00:07:43;;;;;;;6.37;2.17;;;18.70;99.90;;;;;;5030302;28;20444;-78
2021/06/21 00:10:13;;;;;;;8.10;2.80;;;18.70;99.90;;;;;;5031268;28;20484;-78
2021/06/21 00:12:43;;;;;;;4.60;2.50;;;18.70;99.90;;;;;;5030254;28;20457;-79
2021/06/21 00:15:14;;;;;;;9.40;2.60;;;18.70;99.90;;;;;;5028836;28;20478;-78
2021/06/21 00:17:41;;;;;;;9.87;2.47;;;18.60;99.90;;;;;;5029533;28;20453;-80
2021/06/21 00:20:09;;;;;;;10.17;2.60;;;18.60;99.90;;;;;;5016959;28;20485;-78
2021/06/21 00:22:46;;;;;;;8.33;2.00;;;18.60;99.90;;;;;;5015339;28;20539;-80
2021/06/21 00:25:14;;;;;;;8.23;2.10;;;18.60;99.90;;;;;;5015043;28;20537;-79
2021/06/21 00:27:41;;;;;;;8.40;2.17;;;18.50;99.90;;;;;;5014267;28;20442;-78
2021/06/21 00:30:10;;;;;;;7.33;2.30;;;18.50;99.90;;;;;;5014954;28;20453;-78
2021/06/21 00:32:55;;;;;;;7.00;2.57;;;18.40;99.90;;;;;;5022795;28;20464;-78
2021/06/21 00:35:22;;;;;;;5.87;2.13;;;18.40;99.90;;;;;;5026505;28;20444;-79
2021/06/21 00:37:49;;;;;;;6.80;2.27;;;18.30;99.90;;;;;;5027143;28;20441;-79
2021/06/21 00:40:17;;;;;;;7.73;2.63;;;18.40;99.90;;;;;;5030886;28;20497;-79
2021/06/21 00:42:46;;;;;;;9.77;2.90;;;18.50;99.90;;;;;;5031329;28;20454;-78
2021/06/21 00:45:16;;;;;;;6.73;2.20;;;18.40;99.90;;;;;;5031079;28;20493;-79
2021/06/21 00:47:44;;;;;;;9.27;2.50;;;18.30;99.90;;;;;;5031665;28;20453;-79
2021/06/21 00:50:13;;;;;;;8.43;2.57;;;18.30;99.90;;;;;;5029102;28;20457;-78
2021/06/21 00:52:40;;;;;;;9.83;3.20;;;18.40;99.90;;;;;;5029215;28;20432;-78
2021/06/21 00:55:08;;;;;;;9.90;2.67;;;18.30;99.90;;;;;;5029532;28;20875;-78
2021/06/21 00:57:38;;;;;;;7.80;2.77;;;18.30;99.90;;;;;;5019302;28;20545;-78
2021/06/21 01:00:08;;;;;;;10.87;2.80;;;18.30;99.90;;;;;;5017384;28;20578;-79
2021/06/21 01:02:35;;;;;;;9.60;2.60;;;18.20;99.90;;;;;;5017858;28;20514;-80
2021/06/21 01:05:06;;;;;;;7.53;2.20;;;18.20;99.90;;;;;;5020188;28;20489;-79
2021/06/21 01:07:33;;;;;;;6.20;2.27;;;18.10;99.90;;;;;;5033134;28;20467;-79
2021/06/21 01:10:00;;;;;;;7.27;3.33;;;18.10;99.90;;;;;;5032325;28;20419;-78
2021/06/21 01:12:39;;;;;;;11.37;3.13;;;18.10;99.90;;;;;;5031002;28;20467;-79
2021/06/21 01:15:08;;;;;;;7.80;2.80;;;18.20;99.90;;;;;;5032830;28;20502;-76
2021/06/21 01:17:39;;;;;;;9.10;2.70;;;18.20;99.90;;;;;;5034915;28;20442;-77
2021/06/21 01:20:42;;;;;;;5.80;2.40;;;18.20;99.90;;;;;;5032324;28;20488;-79
2021/06/21 01:23:55;;;;;;;3.83;2.10;;;18.20;99.90;;;;;;4997177;28;20482;-79
2021/06/21 01:26:27;;;;;;;8.13;2.40;;;18.20;99.90;;;;;;5024905;28;20455;-80
2021/06/21 01:29:10;;;;;;;12.60;3.03;;;18.20;99.90;;;;;;5028766;28;20427;-79
2021/06/21 01:31:51;;;;;;;7.30;2.83;;;18.20;99.90;;;;;;5026415;28;20457;-78
2021/06/21 01:34:21;;;;;;;5.50;2.53;;;18.20;99.90;;;;;;5028920;28;20419;-79
2021/06/21 01:36:52;;;;;;;10.43;2.23;;;18.20;99.90;;;;;;5028355;28;20535;-77
2021/06/21 01:39:19;;;;;;;6.60;2.50;;;18.20;99.90;;;;;;5031652;28;20471;-78
2021/06/21 01:41:49;;;;;;;10.33;2.60;;;18.20;99.90;;;;;;5037256;28;20492;-77
2021/06/21 01:44:19;;;;;;;6.33;2.13;;;18.20;99.90;;;;;;5028157;28;20482;-78
2021/06/21 01:46:49;;;;;;;8.77;2.20;;;18.30;99.90;;;;;;5023627;28;20943;-78
2021/06/21 01:49:22;;;;;;;10.13;2.07;;;18.20;99.90;;;;;;5024018;28;20484;-78
2021/06/21 01:51:51;;;;;;;9.70;2.23;;;18.20;99.90;;;;;;5023577;28;20454;-78
2021/06/21 01:54:23;;;;;;;5.40;2.53;;;18.10;99.50;;;;;;5023879;28;20435;-78
2021/06/21 01:56:50;;;;;;;7.60;1.70;;;18.10;99.80;;;;;;5025069;28;20508;-78
2021/06/21 01:59:18;;;;;;;5.57;2.50;;;18.10;99.30;;;;;;5023128;28;20479;-77
2021/06/21 02:01:46;;;;;;;6.77;2.27;;;18.10;98.70;;;;;;5024185;28;20524;-78
2021/06/21 02:04:14;;;;;;;4.43;1.87;;;18.10;97.70;;;;;;5025636;28;20459;-78
2021/06/21 02:06:45;;;;;;;5.57;2.07;;;18.10;97.70;;;;;;5024248;28;20507;-77
2021/06/21 02:09:14;;;;;;;6.93;2.23;;;17.90;97.40;;;;;;5034344;28;20461;-77
2021/06/21 02:11:41;;;;;;;5.50;1.70;;;18.00;97.20;;;;;;5028193;28;20449;-78
2021/06/21 02:14:08;;;;;;;7.97;1.87;;;18.00;96.90;;;;;;5035353;28;20452;-77
2021/06/21 02:16:35;;;;;;;6.03;1.83;;;17.90;97.10;;;;;;5032449;28;20464;-78
2021/06/21 02:19:03;;;;;;;6.70;2.27;;;17.90;97.10;;;;;;5024695;28;20479;-77
2021/06/21 02:21:33;;;;;;;7.00;2.53;;;17.90;97.60;;;;;;5024914;28;20444;-78
2021/06/21 02:24:01;;;;;;;6.40;2.40;;;18.00;96.90;;;;;;5014679;28;20495;-78
2021/06/21 02:26:29;;;;;;;4.53;1.97;;;18.00;97.40;;;;;;5014610;28;20441;-79
2021/06/21 02:29:00;;;;;;;7.87;2.80;;;18.00;96.90;;;;;;5015063;28;20494;-78
2021/06/21 02:31:27;;;;;;;13.77;2.23;;;18.00;96.70;;;;;;5012832;28;20582;-77
2021/06/21 02:33:54;;;;;;;6.50;1.70;;;17.90;96.50;;;;;;5013372;28;20547;-78
2021/06/21 02:36:21;;;;;;;8.83;2.20;;;17.90;96.90;;;;;;5021883;28;20799;-78
2021/06/21 02:38:48;;;;;;;11.00;2.07;;;17.90;97.10;;;;;;5013330;28;20542;-77
2021/06/21 02:41:16;;;;;;;6.20;1.60;;;18.00;97.10;;;;;;5012866;28;20450;-78
2021/06/21 02:43:43;;;;;;;7.40;1.50;;;18.00;96.40;;;;;;5022194;28;20447;-78
2021/06/21 02:46:10;;;;;;;6.63;2.53;;;18.00;96.40;;;;;;5013484;28;20496;-78
2021/06/21 02:48:37;;;;;;;4.53;2.27;;;17.90;96.60;;;;;;5013126;28;20810;-78
2021/06/21 02:51:06;;;;;;;7.43;2.13;;;18.00;96.50;;;;;;5012291;28;20490;-80
2021/06/21 02:53:41;;;;;;;12.60;2.53;;;18.00;96.40;;;;;;5012190;28;20547;-78
2021/06/21 02:56:11;;;;;;;9.23;1.87;;;17.90;96.10;;;;;;5012435;28;20507;-78
2021/06/21 02:58:44;;;;;;;7.27;1.97;;;17.90;96.20;;;;;;5012835;28;20411;-78
2021/06/21 03:01:14;;;;;;;4.67;1.73;;;17.90;96.60;;;;;;5015470;28;20418;-80
2021/06/21 03:03:47;;;;;;;9.70;2.57;;;17.80;96.30;;;;;;5016297;28;20453;-77
2021/06/21 03:06:17;;;;;;;13.70;2.63;;;17.80;96.50;;;;;;5015917;28;21026;-77
2021/06/21 03:08:44;;;;;;;5.33;1.90;;;17.90;96.30;;;;;;5015385;28;20488;-77
2021/06/21 03:11:15;;;;;;;7.23;2.17;;;17.90;95.70;;;;;;5018037;28;20523;-76
2021/06/21 03:13:45;;;;;;;4.77;1.97;;;17.80;95.60;;;;;;5017662;28;20495;-79
2021/06/21 03:16:14;;;;;;;7.53;1.70;;;17.80;96.10;;;;;;5018026;28;20485;-79
2021/06/21 03:18:42;;;;;;;8.63;2.10;;;17.70;96.00;;;;;;5016071;28;20523;-78
2021/06/21 03:21:09;;;;;;;8.17;2.13;;;17.70;95.70;;;;;;5015526;28;20454;-78
2021/06/21 03:23:36;;;;;;;5.57;2.10;;;17.70;95.80;;;;;;5015174;28;20876;-78
2021/06/21 03:26:05;;;;;;;6.40;1.97;;;17.80;96.00;;;;;;5015197;28;20487;-78
2021/06/21 03:28:32;;;;;;;5.03;1.90;;;17.80;95.80;;;;;;5015299;28;20460;-78
2021/06/21 03:31:04;;;;;;;9.17;2.47;;;17.80;95.80;;;;;;5015211;28;20559;-78
2021/06/21 03:33:32;;;;;;;9.97;2.20;;;17.80;95.90;;;;;;5015159;28;20558;-80
2021/06/21 03:35:59;;;;;;;6.27;1.80;;;17.80;95.90;;;;;;5015498;28;20450;-78
2021/06/21 03:38:28;;;;;;;7.53;2.20;;;17.80;95.80;;;;;;5015174;28;20836;-78
2021/06/21 03:40:59;;;;;;;6.87;2.37;;;17.80;95.70;;;;;;5015208;28;20456;-78
2021/06/21 03:43:27;;;;;;;8.43;1.90;;;17.80;96.10;;;;;;5016584;28;20439;-79
2021/06/21 03:45:56;;;;;;;4.73;2.33;;;17.80;96.00;;;;;;5015170;28;21004;-79
2021/06/21 03:48:24;;;;;;;6.47;2.37;;;17.80;95.70;;;;;;5015133;28;20453;-78
2021/06/21 03:50:51;;;;;;;11.90;2.07;;;17.80;95.80;;;;;;5015461;28;20501;-78
2021/06/21 03:53:20;;;;;;;9.43;2.87;;;17.80;95.90;;;;;;5016062;28;20508;-78
2021/06/21 03:55:47;;;;;;;7.33;2.50;;;17.90;96.10;;;;;;5018670;28;20489;-79
2021/06/21 03:58:15;;;;;;;10.53;3.03;;;17.90;95.60;;;;;;5034283;28;20474;-79
2021/06/21 04:00:42;;;;;;;11.00;2.47;;;18.00;95.60;;;;;;5027955;28;20466;-78
2021/06/21 04:03:09;;;;;;;6.80;2.20;;;18.00;95.20;;;;;;5014731;28;20869;-78
2021/06/21 04:05:39;;;;;;;13.03;2.07;;;18.00;94.60;;;;;;5015403;28;20511;-78
2021/06/21 04:08:06;;;;;;;8.10;2.30;;;18.00;94.80;;;;;;5015678;28;20551;-78
2021/06/21 04:10:33;;;;;;;5.83;1.90;;;18.10;94.90;;;;;;5015873;28;20462;-78
2021/06/21 04:13:01;;;;;;;10.17;2.40;;;18.10;94.60;;;;;;5015978;28;21015;-78
2021/06/21 04:15:30;;;;;;;7.17;2.20;;;18.20;94.70;;;;;;5017367;28;20562;-78
2021/06/21 04:17:57;;;;;;;7.93;2.20;;;18.20;94.30;;;;;;5017103;28;20443;-78
2021/06/21 04:20:25;;;;;;;8.00;2.17;;;18.20;93.50;;;;;;5019377;28;20474;-80
2021/06/21 04:22:54;;;;;;;10.93;2.07;;;18.20;94.00;;;;;;5027495;28;20537;-78
2021/06/21 04:25:22;;;;;;;4.83;2.13;;;18.30;93.60;;;;;;5036102;28;20484;-79
2021/06/21 04:27:49;;;;;;;9.70;2.23;;;18.50;93.10;;;;;;5027205;28;20427;-78
2021/06/21 04:30:18;;;;;;;13.30;2.20;;;18.70;91.40;;;;;;5034405;28;20441;-83
2021/06/21 04:32:45;;;;;;;9.67;1.93;;;18.90;90.90;;;;;;5038387;28;20480;-82
2021/06/21 04:35:15;;;;;;;4.47;2.20;;;19.00;90.10;;;;;;5031585;28;20798;-78
2021/06/21 04:37:42;;;;;;;8.43;2.40;;;19.10;89.60;;;;;;5014785;28;20561;-79
2021/06/21 04:40:12;;;;;;;5.30;1.87;;;19.10;88.50;;;;;;5014557;28;20439;-79
2021/06/21 04:42:40;;;;;;;6.30;2.47;;;19.20;87.00;;;;;;5014277;28;20500;-79
2021/06/21 04:45:09;;;;;;;9.50;4.00;;;19.10;87.00;;;;;;5015004;28;21029;-79
2021/06/21 04:47:37;;;;;;;6.63;2.40;;;19.10;87.50;;;;;;5015260;28;20450;-80
2021/06/21 04:50:09;;;;;;;7.50;1.87;;;19.20;88.20;;;;;;5026014;28;20468;-78
2021/06/21 04:52:38;;;;;;;6.10;3.37;;;19.70;84.70;;;;;;5015005;28;20456;-78
2021/06/21 04:55:07;;;;;;;9.13;1.70;;;20.50;78.10;;;;;;5016373;28;20460;-78
2021/06/21 04:57:35;;;;;;;10.40;2.13;;;21.30;69.00;;;;;;5018813;28;20429;-78
2021/06/21 05:00:06;;;;;;;5.50;2.00;;;22.00;64.80;;;;;;5015835;28;20437;-78
2021/06/21 05:02:33;;;;;;;4.80;1.80;;;22.80;61.10;;;;;;5016336;28;20428;-78
2021/06/21 05:05:00;;;;;;;6.00;1.83;;;23.50;56.80;;;;;;5014204;28;20509;-79
2021/06/21 05:07:27;;;;;;;5.60;1.33;;;24.00;53.90;;;;;;5015907;28;20975;-78
2021/06/21 05:09:53;;;;;;;6.47;1.60;;;24.60;51.70;;;;;;5013845;28;20952;-79
2021/06/21 05:12:20;;;;;;;7.40;1.70;;;24.60;50.40;;;;;;5014465;28;20456;-79
2021/06/21 05:14:49;;;;;;;5.90;1.60;;;24.80;49.30;;;;;;5014198;28;20483;-79
2021/06/21 05:17:16;;;;;;;9.73;1.57;;;25.20;48.30;;;;;;5014694;28;20520;-79
2021/06/21 05:19:43;;;;;;;8.03;1.93;;;25.50;47.20;;;;;;5015847;28;20945;-78
2021/06/21 05:22:10;;;;;;;7.93;1.67;;;25.60;46.20;;;;;;5017292;28;20893;-79
2021/06/21 05:24:37;;;;;;;7.53;1.60;;;25.20;47.30;;;;;;5022788;28;20495;-77
2021/06/21 05:27:05;;;;;;;10.27;2.40;;;24.90;48.10;;;;;;5014788;28;20425;-79
2021/06/21 05:29:32;;;;;;;9.47;2.20;;;24.70;48.20;;;;;;5018481;28;20517;-79
2021/06/21 05:32:01;;;;;;;7.30;1.80;;;24.50;49.30;;;;;;5027435;28;20465;-79
2021/06/21 05:34:27;;;;;;;6.17;1.70;;;24.50;49.20;;;;;;5027710;28;20444;-79
2021/06/21 05:36:55;;;;;;;8.13;1.83;;;24.80;47.80;;;;;;5027197;28;20445;-79
2021/06/21 05:39:22;;;;;;;11.80;2.23;;;25.10;47.50;;;;;;5023982;28;20478;-78
2021/06/21 05:41:49;;;;;;;6.60;2.47;;;25.60;46.00;;;;;;5017918;28;20452;-78
2021/06/21 05:44:16;;;;;;;5.77;2.57;;;25.90;44.10;;;;;;5026172;28;20434;-78
2021/06/21 05:46:43;;;;;;;6.43;1.90;;;26.30;44.40;;;;;;5023785;28;20476;-77
2021/06/21 05:49:11;;;;;;;11.47;2.20;;;26.50;43.60;;;;;;5018994;28;20428;-78
2021/06/21 05:51:38;;;;;;;10.03;2.67;;;26.30;44.30;;;;;;5018318;28;20514;-78
2021/06/21 05:54:05;;;;;;;4.03;1.90;;;26.50;44.00;;;;;;5021019;28;20455;-77
2021/06/21 05:56:32;;;;;;;5.13;1.57;;;26.30;44.40;;;;;;5022857;28;20478;-79
2021/06/21 05:58:59;;;;;;;4.37;1.80;;;26.00;44.20;;;;;;5026054;28;20495;-77
2021/06/21 06:01:26;;;;;;;4.20;1.80;;;26.10;44.20;;;;;;5034665;28;20430;-79
2021/06/21 06:03:53;;;;;;;4.80;1.80;;;26.20;44.30;;;;;;5032655;28;20442;-80
2021/06/21 06:06:21;;;;;;;7.27;1.87;;;26.40;44.10;;;;;;5033614;28;20443;-78
2021/06/21 06:08:48;;;;;;;4.90;2.00;;;26.10;44.20;;;;;;5034935;28;20481;-76
2021/06/21 06:11:15;;;;;;;4.40;1.50;;;26.20;44.30;;;;;;5023851;28;20490;-79
2021/06/21 06:13:42;;;;;;;9.83;2.23;;;26.20;44.30;;;;;;5018600;28;20489;-77
2021/06/21 06:16:09;;;;;;;6.93;1.87;;;26.50;43.60;;;;;;5016267;28;20488;-78
2021/06/21 06:18:36;;;;;;;6.63;1.93;;;27.00;42.00;;;;;;5019253;28;20487;-78
2021/06/21 06:21:03;;;;;;;7.03;1.97;;;27.30;41.40;;;;;;5019486;28;20551;-78
2021/06/21 06:23:32;;;;;;;6.87;1.60;;;27.30;39.00;;;;;;5019047;28;20519;-79
2021/06/21 06:25:59;;;;;;;9.27;1.97;;;26.80;41.10;;;;;;5020763;28;20448;-79
2021/06/21 06:28:26;;;;;;;9.00;1.97;;;26.90;41.30;;;;;;5021300;28;20491;-79
2021/06/21 06:30:53;;;;;;;5.13;1.60;;;27.10;41.10;;;;;;5024173;28;20452;-78
2021/06/21 06:33:20;;;;;;;4.83;1.60;;;27.30;39.70;;;;;;5024213;28;20498;-78
2021/06/21 06:35:47;;;;;;;5.47;1.70;;;27.70;39.20;;;;;;5034986;28;20438;-79
2021/06/21 06:38:14;;;;;;;7.80;1.70;;;27.70;39.40;;;;;;5036739;28;20550;-77
2021/06/21 06:40:42;;;;;;;6.37;2.00;;;27.60;39.30;;;;;;5028629;28;20450;-75
2021/06/21 06:43:09;;;;;;;6.63;1.47;;;27.50;39.40;;;;;;5019487;28;20451;-76
2021/06/21 06:45:36;;;;;;;3.90;1.50;;;27.60;38.40;;;;;;5024912;28;20550;-75
2021/06/21 06:48:03;;;;;;;9.00;1.50;;;28.30;37.10;;;;;;5034710;28;20413;-75
2021/06/21 06:50:30;;;;;;;4.50;1.50;;;28.30;35.80;;;;;;5037006;28;20437;-75
2021/06/21 06:52:58;;;;;;;9.57;2.20;;;27.80;37.60;;;;;;5039346;28;20528;-75
2021/06/21 06:58:11;;;;;;;5.10;1.40;;;27.40;38.30;;;;;;5023569;28;20505;-76
2021/06/21 07:00:38;;;;;;;4.20;1.50;;;26.90;39.70;;;;;;5022253;28;20462;-75
2021/06/21 07:03:08;;;;;;;8.90;1.87;;;26.80;38.70;;;;;;5019214;28;20542;-75
2021/06/21 07:05:35;;;;;;;4.10;1.57;;;26.20;40.80;;;;;;5019016;28;20548;-77
2021/06/21 07:08:02;;;;;;;7.90;2.00;;;26.00;41.50;;;;;;5021437;28;20483;-77
2021/06/21 07:10:29;;;;;;;11.60;2.83;;;25.70;43.20;;;;;;5014539;28;20442;-80
2021/06/21 07:12:57;;;;;;;8.77;2.00;;;25.40;43.80;;;;;;5020322;28;20528;-78
2021/06/21 07:15:25;;;;;;;10.07;2.00;;;25.20;43.60;;;;;;5020091;28;20456;-79
2021/06/21 07:17:52;;;;;;;7.50;1.60;;;24.90;45.00;;;;;;5022335;28;20428;-81
2021/06/21 07:20:19;;;;;;;3.20;1.47;;;24.80;45.30;;;;;;5027091;28;20457;-82
2021/06/21 07:22:46;;;;;;;6.20;1.77;;;24.60;46.20;;;;;;5026334;28;20452;-81
2021/06/21 07:25:13;;;;;;;4.93;1.80;;;24.60;47.40;;;;;;5026138;28;20470;-83
2021/06/21 07:27:41;;;;;;;5.87;2.00;;;24.70;46.00;;;;;;5030924;28;20497;-81
2021/06/21 07:30:09;;;;;;;7.57;1.80;;;24.40;45.90;;;;;;5038936;28;20432;-82
2021/06/21 07:32:38;;;;;;;4.63;1.20;;;24.10;46.70;;;;;;5026925;28;20631;-84
2021/06/21 07:35:07;;;;;;;5.40;1.50;;;24.00;47.90;;;;;;5024413;28;20487;-82
2021/06/21 07:37:33;;;;;;;9.73;2.00;;;24.10;47.70;;;;;;5031450;28;20433;-82
2021/06/21 07:40:00;;;;;;;3.40;1.70;;;24.20;47.50;;;;;;5032609;28;20436;-84
2021/06/21 07:42:27;;;;;;;7.03;2.37;;;24.30;47.70;;;;;;5017547;28;20423;-83
2021/06/21 07:44:54;;;;;;;8.83;1.53;;;24.30;48.00;;;;;;5018905;28;20436;-79
2021/06/21 07:47:21;;;;;;;8.20;2.57;;;24.30;47.00;;;;;;5021595;28;20461;-80
2021/06/21 07:49:49;;;;;;;7.30;1.73;;;24.20;46.40;;;;;;5020139;28;20432;-78
2021/06/21 07:52:16;;;;;;;8.27;2.17;;;24.10;46.70;;;;;;5019597;28;20524;-78
2021/06/21 07:54:43;;;;;;;4.23;1.60;;;24.00;46.60;;;;;;5031978;28;20454;-79
2021/06/21 07:57:11;;;;;;;6.50;1.70;;;24.00;45.50;;;;;;5034238;28;20453;-79
2021/06/21 07:59:38;;;;;;;3.30;1.13;;;24.00;45.40;;;;;;5021838;28;20517;-80
2021/06/21 08:02:05;;;;;;;8.53;1.67;;;24.00;44.30;;;;;;5045258;28;20493;-80
2021/06/21 08:04:32;;;;;;;5.53;2.23;;;23.70;44.30;;;;;;5040909;28;20448;-79
2021/06/21 08:07:00;;;;;;;6.30;2.23;;;23.60;45.90;;;;;;5041479;28;21077;-80
2021/06/21 08:09:28;;;;;;;5.27;1.73;;;23.70;45.80;;;;;;5045993;28;20435;-80
2021/06/21 08:11:54;;;;;;;5.97;1.70;;;23.70;46.20;;;;;;5044630;28;20431;-79
2021/06/21 08:14:22;;;;;;;5.27;2.10;;;23.80;45.50;;;;;;5047261;28;20518;-79
2021/06/21 08:16:49;;;;;;;5.53;2.00;;;23.80;45.60;;;;;;5043607;28;20492;-79
2021/06/21 08:19:16;;;;;;;3.97;1.93;;;23.90;45.20;;;;;;5048218;28;20451;-81
2021/06/21 08:21:43;;;;;;;2.57;1.57;;;23.90;45.40;;;;;;5047254;28;20461;-79
2021/06/21 08:24:12;;;;;;;7.97;2.00;;;23.90;45.60;;;;;;5046466;28;20480;-79
2021/06/21 08:26:38;;;;;;;6.37;2.57;;;23.80;46.30;;;;;;5047509;28;20516;-79
2021/06/21 08:29:05;;;;;;;5.93;1.90;;;23.90;46.00;;;;;;5048845;28;20500;-80
2021/06/21 08:31:32;;;;;;;5.73;2.00;;;24.00;45.20;;;;;;5048401;28;20519;-80
2021/06/21 08:34:00;;;;;;;8.37;1.90;;;24.00;45.10;;;;;;5047696;28;20512;-80
2021/06/21 08:36:27;;;;;;;4.13;1.87;;;24.00;44.10;;;;;;5045671;28;20449;-79
2021/06/21 08:38:53;;;;;;;2.40;1.40;;;24.10;44.40;;;;;;5062909;28;20796;-78
2021/06/21 08:41:22;;;;;;;8.10;1.80;;;24.20;44.40;;;;;;5053717;28;20457;-80
2021/06/21 08:43:49;;;;;;;7.10;2.50;;;24.40;43.70;;;;;;5045476;28;20446;-80
2021/06/21 08:46:18;;;;;;;5.27;1.90;;;24.60;43.10;;;;;;5043502;28;20573;-79
2021/06/21 08:48:47;;;;;;;6.80;2.17;;;24.70;43.20;;;;;;5042670;28;20436;-79
2021/06/21 08:51:15;;;;;;;6.73;2.07;;;24.50;43.40;;;;;;5043593;28;20488;-80
2021/06/21 08:53:43;;;;;;;3.73;1.93;;;24.50;44.60;;;;;;5045987;28;20489;-81
2021/06/21 08:56:11;;;;;;;3.17;1.60;;;24.60;43.60;;;;;;5043554;28;20481;-81
2021/06/21 08:58:40;;;;;;;5.20;2.00;;;25.00;43.50;;;;;;5044446;28;20488;-80
2021/06/21 09:01:11;;;;;;;4.03;1.90;;;25.10;42.90;;;;;;5051471;28;20462;-80
2021/06/21 09:03:38;;;;;;;3.63;1.60;;;25.00;42.70;;;;;;5054905;28;20444;-82
2021/06/21 09:06:17;;;;;;;4.77;2.03;;;24.90;42.80;;;;;;5054603;28;20485;-81
2021/06/21 09:08:55;;;;;;;7.00;2.20;;;24.90;42.40;;;;;;5057600;28;20515;-81
2021/06/21 09:11:45;;;;;;;5.60;1.97;;;25.20;41.50;;;;;;5051474;28;20445;-79
2021/06/21 09:14:29;;;;;;;4.83;1.90;;;25.40;41.20;;;;;;5043240;28;20485;-81
2021/06/21 09:16:58;;;;;;;4.17;2.13;;;25.30;42.50;;;;;;5042981;28;20485;-81
2021/06/21 09:19:24;;;;;;;1.97;1.57;;;25.40;41.50;;;;;;5044430;28;20464;-81
2021/06/21 09:21:52;;;;;;;3.70;1.60;;;25.50;39.80;;;;;;5043494;28;20432;-80
2021/06/21 09:24:20;;;;;;;4.07;1.90;;;25.40;39.20;;;;;;5044398;28;20447;-80
2021/06/21 09:26:49;;;;;;;3.10;1.70;;;25.30;39.20;;;;;;5041318;28;20543;-80
2021/06/21 09:29:17;;;;;;;5.57;2.37;;;25.50;38.80;;;;;;5044385;28;20429;-80
2021/06/21 09:31:53;;;;;;;5.90;2.30;;;25.50;37.70;;;;;;5037714;28;20517;-79
2021/06/21 09:34:22;;;;;;;3.53;1.40;;;25.60;37.60;;;;;;5043435;28;20464;-81
2021/06/21 09:36:49;;;;;;;2.33;1.53;;;25.60;37.20;;;;;;5038934;28;20468;-80
2021/06/21 09:39:18;;;;;;;2.63;1.83;;;25.80;37.60;;;;;;5041686;28;20729;-80
2021/06/21 09:41:45;;;;;;;4.80;1.40;;;26.00;35.90;;;;;;5047508;28;20468;-81
2021/06/21 09:44:30;;;;;;;6.13;1.77;;;25.80;37.10;;;;;;5045562;28;20491;-80
2021/06/21 09:47:13;;;;;;;5.73;2.00;;;26.20;36.80;;;;;;5022795;28;20909;-79
2021/06/21 09:49:52;;;;;;;4.10;1.70;;;26.50;36.60;;;;;;5023390;28;20762;-80
2021/06/21 09:52:36;;;;;;;5.57;1.57;;;26.60;34.80;;;;;;5042604;28;20446;-81
2021/06/21 09:55:24;;;;;;;5.37;2.00;;;26.30;35.20;;;;;;5043318;28;20432;-80
2021/06/21 09:58:12;;;;;;;4.07;1.77;;;26.10;36.70;;;;;;5041140;28;20462;-80
2021/06/21 10:00:42;;;;;;;2.93;2.00;;;26.00;37.00;;;;;;5041683;28;20422;-80
2021/06/21 10:03:12;;;;;;;2.90;1.93;;;26.20;36.90;;;;;;5035870;28;20500;-79
2021/06/21 10:05:42;;;;;;;4.10;1.83;;;26.20;36.40;;;;;;5037126;28;20498;-80
2021/06/21 10:08:11;;;;;;;6.63;1.40;;;26.30;36.40;;;;;;5037794;28;20454;-81
2021/06/21 10:10:39;;;;;;;6.87;2.43;;;26.60;35.80;;;;;;5041278;28;20508;-80
2021/06/21 10:13:07;;;;;;;7.70;2.73;;;26.90;34.80;;;;;;5039883;28;20515;-79
2021/06/21 10:15:36;;;;;;;3.30;1.80;;;26.80;34.40;;;;;;5043612;28;20471;-80
2021/06/21 10:18:05;;;;;;;5.97;1.90;;;26.70;34.30;;;;;;5040735;28;20521;-79
2021/06/21 10:20:34;;;;;;;4.87;1.30;;;26.70;34.30;;;;;;5043896;28;20453;-79
2021/06/21 10:23:08;;;;;;;6.60;1.83;;;26.90;34.50;;;;;;5037566;28;20463;-80
2021/06/21 10:25:35;;;;;;;2.80;1.90;;;27.10;34.60;;;;;;5042504;28;20461;-80
2021/06/21 10:28:03;;;;;;;3.63;1.67;;;27.10;34.10;;;;;;5040780;28;20971;-79
2021/06/21 10:30:32;;;;;;;4.40;1.50;;;27.10;34.60;;;;;;5041075;28;20547;-80
2021/06/21 10:32:59;;;;;;;2.60;1.60;;;27.10;35.40;;;;;;5043510;28;20437;-80
2021/06/21 10:35:31;;;;;;;5.23;1.97;;;27.20;34.70;;;;;;5046383;28;20841;-80
2021/06/21 10:38:02;;;;;;;11.30;2.70;;;27.40;34.80;;;;;;5040989;28;20931;-80
2021/06/21 10:40:30;;;;;;;3.93;2.00;;;27.40;34.80;;;;;;5038379;28;20471;-80
2021/06/21 10:42:57;;;;;;;6.10;1.70;;;27.60;34.60;;;;;;5040784;28;20534;-81
2021/06/21 10:45:27;;;;;;;4.93;2.03;;;27.60;33.60;;;;;;5039566;28;20485;-80
2021/06/21 10:48:08;;;;;;;3.57;2.00;;;27.60;33.10;;;;;;5039683;28;20495;-79
2021/06/21 10:50:50;;;;;;;3.43;1.97;;;27.60;33.40;;;;;;5040473;28;20421;-80
2021/06/21 10:53:18;;;;;;;3.33;2.00;;;27.50;32.90;;;;;;5045588;28;20476;-80
2021/06/21 10:55:51;;;;;;;5.00;2.00;;;27.30;34.40;;;;;;5076233;28;20454;-79
2021/06/21 10:58:41;;;;;;;2.63;1.57;;;27.50;34.30;;;;;;5069549;28;20478;-82
2021/06/21 11:01:19;;;;;;;5.37;2.57;;;27.60;33.70;;;;;;5044837;28;20465;-81
2021/06/21 11:03:46;;;;;;;4.63;2.00;;;28.10;32.70;;;;;;5057895;28;20921;-79
2021/06/21 11:06:41;;;;;;;2.23;2.00;;;28.20;31.70;;;;;;5053141;28;20484;-80
2021/06/21 11:09:11;;;;;;;9.50;1.83;;;28.00;31.90;;;;;;5043215;28;20456;-80
2021/06/21 11:11:46;;;;;;;5.00;1.90;;;27.70;34.10;;;;;;5046530;28;20471;-80
2021/06/21 11:14:15;;;;;;;4.97;1.83;;;27.50;33.20;;;;;;5035422;28;21071;-80
2021/06/21 11:16:43;;;;;;;5.10;1.67;;;27.20;33.90;;;;;;5031590;28;20481;-81
2021/06/21 11:19:36;;;;;;;2.70;1.90;;;27.10;34.60;;;;;;5042910;28;20450;-80
2021/06/21 11:22:07;;;;;;;3.80;1.93;;;26.60;34.20;;;;;;5056052;28;20462;-80
2021/06/21 11:24:57;;;;;;;6.30;2.00;;;26.30;34.00;;;;;;5050545;28;20417;-79
2021/06/21 11:27:45;;;;;;;3.57;2.20;;;26.30;35.10;;;;;;5052819;28;20417;-78
2021/06/21 11:30:33;;;;;;;3.77;1.90;;;25.90;36.10;;;;;;5051261;28;20428;-79
2021/06/21 11:33:03;;;;;;;5.27;2.13;;;26.30;35.90;;;;;;5035529;28;20485;-79
2021/06/21 11:35:59;;;;;;;2.73;1.50;;;26.50;34.70;;;;;;5035681;28;20517;-78
2021/06/21 11:38:31;;;;;;;2.83;2.13;;;26.80;34.40;;;;;;5035733;28;20969;-79
2021/06/21 11:41:26;;;;;;;3.57;1.90;;;26.90;34.50;;;;;;5036434;28;20454;-79
2021/06/21 11:43:55;;;;;;;6.27;2.13;;;26.80;34.40;;;;;;5035792;28;20487;-77
2021/06/21 11:46:44;;;;;;;2.93;1.73;;;26.90;34.50;;;;;;5035951;28;20513;-79
2021/06/21 11:49:13;;;;;;;1.87;1.40;;;27.40;34.80;;;;;;5034521;28;20438;-79
2021/06/21 11:51:52;;;;;;;4.03;1.63;;;27.90;32.80;;;;;;5045207;28;20464;-78
2021/06/21 11:54:19;;;;;;;1.87;1.67;;;28.00;32.20;;;;;;5048051;28;20488;-77
2021/06/21 11:56:52;;;;;;;2.23;1.80;;;28.00;31.80;;;;;;5040261;28;20458;-77
2021/06/21 11:59:34;;;;;;;2.73;1.80;;;27.90;30.70;;;;;;5044465;28;20424;-77
2021/06/21 12:02:03;;;;;;;1.80;1.60;;;27.70;32.00;;;;;;5049465;28;20485;-79
2021/06/21 12:04:30;;;;;;;5.57;1.97;;;27.90;32.50;;;;;;5041905;28;20423;-78
2021/06/21 12:06:58;;;;;;;3.20;1.67;;;28.10;31.20;;;;;;5039304;28;20485;-78
2021/06/21 12:09:25;;;;;;;3.10;2.03;;;28.10;31.30;;;;;;5051240;28;20477;-77
2021/06/21 12:11:53;;;;;;;4.10;2.10;;;28.20;31.60;;;;;;5055130;28;20514;-77
2021/06/21 12:14:23;;;;;;;2.43;1.70;;;27.90;31.40;;;;;;5056701;28;20459;-78
2021/06/21 12:16:51;;;;;;;4.90;2.60;;;28.00;30.30;;;;;;5056869;28;20475;-77
2021/06/21 12:19:25;;;;;;;3.23;2.47;;;28.00;30.20;;;;;;5053017;28;20457;-78
2021/06/21 12:21:52;;;;;;;3.87;2.07;;;28.00;31.40;;;;;;5036515;28;20987;-77
2021/06/21 12:24:21;;;;;;;5.87;1.67;;;27.90;31.90;;;;;;5039987;28;20498;-77
2021/06/21 12:26:50;;;;;;;2.27;1.80;;;28.10;32.10;;;;;;5041280;28;20997;-77
2021/06/21 12:29:28;;;;;;;4.90;2.30;;;28.20;30.60;;;;;;5036602;28;20468;-77
2021/06/21 12:32:01;;;;;;;5.23;2.10;;;28.00;31.80;;;;;;5036975;28;20424;-77
2021/06/21 12:34:49;;;;;;;4.23;2.10;;;28.00;32.60;;;;;;5035429;28;20488;-77
2021/06/21 12:37:22;;;;;;;2.50;1.90;;;28.00;31.60;;;;;;5052226;28;20468;-77
2021/06/21 12:39:52;;;;;;;3.83;2.30;;;27.70;32.50;;;;;;5051936;28;20423;-77
2021/06/21 12:42:21;;;;;;;3.27;1.93;;;27.10;34.30;;;;;;5049059;28;20469;-77
2021/06/21 12:44:50;;;;;;;3.90;2.00;;;27.20;34.70;;;;;;5046819;28;20464;-77
2021/06/21 12:47:22;;;;;;;3.97;1.90;;;27.30;35.50;;;;;;5046228;28;20906;-77
2021/06/21 12:49:53;;;;;;;2.40;2.10;;;27.30;32.90;;;;;;5048669;28;20453;-77
2021/06/21 12:52:21;;;;;;;3.23;1.97;;;26.90;33.60;;;;;;5045425;28;20455;-76
2021/06/21 12:54:55;;;;;;;3.20;2.13;;;26.80;34.40;;;;;;5039636;28;20517;-76
2021/06/21 12:57:22;;;;;;;4.87;1.90;;;26.90;34.50;;;;;;5022216;28;20441;-77
2021/06/21 12:59:53;;;;;;;3.20;1.43;;;27.50;33.40;;;;;;5028339;28;20435;-77
2021/06/21 13:02:22;;;;;;;4.03;1.90;;;27.80;31.60;;;;;;5016976;28;20445;-77